createdAt,value
2023-03-29T00:00:32.534Z,101438.41
2023-03-29T00:03:04.177Z,101437.50
2023-03-29T00:05:33.996Z,101430.50
2023-03-29T00:08:04.598Z,101428.34
2023-03-29T00:10:32.729Z,101420.25
2023-03-29T00:12:59.952Z,101422.50
2023-03-29T00:15:27.116Z,101413.69
2023-03-29T00:17:53.865Z,101410.44
2023-03-29T00:20:20.695Z,101405.88
2023-03-29T00:22:53.152Z,101408.63
2023-03-29T00:25:19.799Z,101409.91
2023-03-29T00:27:51.767Z,101399.38
2023-03-29T00:30:18.779Z,101401.63
2023-03-29T00:32:47.198Z,101395.22
2023-03-29T00:35:13.932Z,101400.16
2023-03-29T00:37:41.256Z,101398.66
2023-03-29T00:40:10.799Z,101394.00
2023-03-29T00:42:38.090Z,101383.69
2023-03-29T00:45:05.066Z,101380.00
2023-03-29T00:47:46.903Z,101375.84
2023-03-29T00:50:19.084Z,101371.06
2023-03-29T00:52:53.482Z,101357.38
2023-03-29T00:55:24.873Z,101347.31
2023-03-29T00:57:53.699Z,101345.16
2023-03-29T01:00:26.739Z,101343.66
2023-03-29T01:02:59.746Z,101341.22
2023-03-29T01:05:34.486Z,101338.53
2023-03-29T01:08:12.469Z,101314.72
2023-03-29T01:10:56.520Z,101325.13
2023-03-29T01:13:37.865Z,101309.88
2023-03-29T01:16:14.380Z,101312.84
2023-03-29T01:18:43.784Z,101308.06
2023-03-29T01:21:20.372Z,101300.03
2023-03-29T01:24:09.164Z,101292.81
2023-03-29T01:26:58.891Z,101297.38
2023-03-29T01:29:33.114Z,101294.41
2023-03-29T01:32:28.277Z,101287.63
2023-03-29T01:35:02.994Z,101282.78
2023-03-29T01:37:39.647Z,101279.09
2023-03-29T01:40:09.505Z,101275.44
2023-03-29T01:42:42.370Z,101269.75
2023-03-29T01:45:32.886Z,101271.38
2023-03-29T01:48:46.538Z,101266.44
2023-03-29T01:51:26.910Z,101254.41
2023-03-29T01:54:24.246Z,101257.97
2023-03-29T01:56:52.143Z,101257.97
2023-03-29T01:59:22.986Z,101244.72
2023-03-29T02:04:29.032Z,101236.53
2023-03-29T02:06:59.529Z,101235.53
2023-03-29T02:09:31.370Z,101227.78
2023-03-29T02:12:01.010Z,101230.97
2023-03-29T02:14:30.935Z,101222.44
2023-03-29T02:17:15.367Z,101214.25
2023-03-29T02:19:44.676Z,101214.19
2023-03-29T02:22:12.851Z,101215.81
2023-03-29T02:24:44.562Z,101215.28
2023-03-29T02:27:11.875Z,101222.44
2023-03-29T02:29:38.514Z,101210.59
2023-03-29T02:32:16.000Z,101211.25
2023-03-29T02:34:58.616Z,101201.81
2023-03-29T02:37:30.231Z,101210.13
2023-03-29T02:39:58.892Z,101207.50
2023-03-29T02:42:26.773Z,101202.38
2023-03-29T02:44:58.196Z,101194.91
2023-03-29T02:47:31.899Z,101195.56
2023-03-29T02:50:02.229Z,101195.53
2023-03-29T02:52:39.265Z,101190.03
2023-03-29T02:55:14.678Z,101177.56
2023-03-29T02:57:43.492Z,101175.94
2023-03-29T03:00:11.813Z,101163.28
2023-03-29T03:02:38.717Z,101166.72
2023-03-29T03:05:08.310Z,101164.88
2023-03-29T03:07:35.241Z,101172.22
2023-03-29T03:10:04.034Z,101159.84
2023-03-29T03:12:31.731Z,101158.34
2023-03-29T03:14:59.071Z,101152.22
2023-03-29T03:17:25.988Z,101155.84
2023-03-29T03:19:53.287Z,101148.72
2023-03-29T03:22:20.566Z,101154.19
2023-03-29T03:24:47.565Z,101155.19
2023-03-29T03:27:14.429Z,101147.50
2023-03-29T03:29:41.601Z,101147.47
2023-03-29T03:32:44.846Z,101138.25
2023-03-29T03:35:21.872Z,101136.63
2023-03-29T03:37:48.620Z,101141.25
2023-03-29T03:40:17.434Z,101135.03
2023-03-29T03:42:44.523Z,101132.56
2023-03-29T03:45:13.088Z,101134.09
2023-03-29T03:47:52.104Z,101134.91
2023-03-29T03:50:51.908Z,101132.41
2023-03-29T03:53:19.317Z,101126.69
2023-03-29T03:56:23.817Z,101130.50
2023-03-29T03:59:09.670Z,101121.38
2023-03-29T04:01:56.679Z,101113.16
2023-03-29T04:04:24.870Z,101110.94
2023-03-29T04:07:02.848Z,101112.50
2023-03-29T04:09:48.839Z,101106.59
2023-03-29T04:12:33.934Z,101117.41
2023-03-29T04:15:01.206Z,101114.28
2023-03-29T04:17:29.042Z,101118.53
2023-03-29T04:20:05.600Z,101120.09
2023-03-29T04:22:33.452Z,101113.63
2023-03-29T04:25:00.703Z,101112.66
2023-03-29T04:27:39.592Z,101118.25
2023-03-29T04:30:14.879Z,101105.38
2023-03-29T04:33:10.378Z,101104.69
2023-03-29T04:35:39.900Z,101099.31
2023-03-29T04:38:11.597Z,101110.94
2023-03-29T04:40:39.645Z,101112.84
2023-03-29T04:43:14.493Z,101116.03
2023-03-29T04:45:51.962Z,101107.88
2023-03-29T04:48:44.692Z,101098.56
2023-03-29T04:51:12.746Z,101100.97
2023-03-29T04:53:40.601Z,101100.69
2023-03-29T04:56:08.032Z,101104.72
2023-03-29T04:58:56.294Z,101101.06
2023-03-29T05:01:25.643Z,101094.09
2023-03-29T05:03:57.541Z,101096.28
2023-03-29T05:06:32.675Z,101092.41
2023-03-29T05:09:02.690Z,101084.31
2023-03-29T05:11:35.134Z,101080.19
2023-03-29T05:14:03.454Z,101083.84
2023-03-29T05:16:34.674Z,101078.59
2023-03-29T05:19:02.036Z,101091.25
2023-03-29T05:21:30.124Z,101085.09
2023-03-29T05:24:01.522Z,101091.63
2023-03-29T05:26:51.714Z,101092.03
2023-03-29T05:29:18.791Z,101086.72
2023-03-29T05:31:52.537Z,101091.84
2023-03-29T05:34:20.039Z,101088.22
2023-03-29T05:36:51.784Z,101085.44
2023-03-29T05:39:19.279Z,101079.94
2023-03-29T05:41:46.486Z,101075.06
2023-03-29T05:44:30.025Z,101072.97
2023-03-29T05:47:06.708Z,101067.56
2023-03-29T05:49:33.978Z,101073.63
2023-03-29T05:52:11.605Z,101062.69
2023-03-29T05:54:38.788Z,101061.06
2023-03-29T05:57:09.349Z,101057.72
2023-03-29T05:59:37.008Z,101064.94
2023-03-29T06:02:04.798Z,101061.22
2023-03-29T06:04:33.562Z,101056.19
2023-03-29T06:07:23.470Z,101052.63
2023-03-29T06:10:09.751Z,101060.13
2023-03-29T06:12:38.730Z,101054.59
2023-03-29T06:15:06.534Z,101050.25
2023-03-29T06:17:51.603Z,101052.41
2023-03-29T06:20:21.511Z,101060.69
2023-03-29T06:22:55.009Z,101055.41
2023-03-29T06:25:31.956Z,101059.19
2023-03-29T06:28:04.597Z,101065.38
2023-03-29T06:30:37.140Z,101057.09
2023-03-29T06:33:12.279Z,101054.66
2023-03-29T06:36:05.245Z,101055.22
2023-03-29T06:38:35.315Z,101067.78
2023-03-29T06:41:18.264Z,101064.06
2023-03-29T06:44:07.000Z,101077.78
2023-03-29T06:46:50.888Z,101079.97
2023-03-29T06:49:47.743Z,101069.84
2023-03-29T06:52:36.795Z,101058.13
2023-03-29T06:55:14.574Z,101057.38
2023-03-29T06:57:56.353Z,101055.72
2023-03-29T07:00:33.128Z,101052.41
2023-03-29T07:03:31.052Z,101052.13
2023-03-29T07:06:10.278Z,101047.66
2023-03-29T07:08:56.938Z,101046.81
2023-03-29T07:12:01.081Z,101057.94
2023-03-29T07:14:33.668Z,101061.75
2023-03-29T07:17:09.094Z,101058.13
2023-03-29T07:19:41.518Z,101055.56
2023-03-29T07:22:29.292Z,101060.50
2023-03-29T07:25:10.237Z,101061.84
2023-03-29T07:27:44.383Z,101060.38
2023-03-29T07:30:18.991Z,101056.22
2023-03-29T07:32:46.520Z,101049.84
2023-03-29T07:35:29.086Z,101050.59
2023-03-29T07:38:05.231Z,101054.56
2023-03-29T07:40:42.343Z,101056.28
2023-03-29T07:48:10.008Z,101054.34
2023-03-29T07:50:23.601Z,101048.09
2023-03-29T07:53:05.778Z,101049.69
2023-03-29T07:55:49.161Z,101050.47
2023-03-29T08:02:08.270Z,101045.13
2023-03-29T08:04:49.499Z,101049.38
2023-03-29T08:07:24.235Z,101053.81
2023-03-29T08:10:00.815Z,101040.91
2023-03-29T08:12:55.740Z,101041.47
2023-03-29T08:15:58.882Z,101041.91
2023-03-29T08:18:54.608Z,101036.06
2023-03-29T08:21:45.362Z,101025.53
2023-03-29T08:24:30.052Z,101021.91
2023-03-29T08:27:19.715Z,101031.97
2023-03-29T08:35:51.436Z,101011.78
2023-03-29T08:38:35.408Z,101015.50
2023-03-29T08:45:26.994Z,101012.41
2023-03-29T08:48:38.955Z,101016.28
2023-03-29T08:51:26.666Z,101008.97
2023-03-29T08:54:19.721Z,101008.97
2023-03-29T08:57:33.163Z,101005.81
2023-03-29T09:03:45.912Z,101013.47
2023-03-29T09:06:56.311Z,101015.53
2023-03-29T09:09:39.388Z,101012.13
2023-03-29T09:12:50.151Z,101020.69
2023-03-29T09:15:52.237Z,101017.22
2023-03-29T09:19:04.236Z,101007.56
2023-03-29T09:22:05.403Z,100997.09
2023-03-29T09:28:16.345Z,100982.00
2023-03-29T09:34:36.463Z,100978.13
2023-03-29T09:37:41.953Z,100983.88
2023-03-29T09:40:35.570Z,100991.25
2023-03-29T09:43:38.247Z,100996.16
2023-03-29T09:46:32.790Z,100988.22
2023-03-29T09:52:22.848Z,100981.28
2023-03-29T09:55:29.486Z,100982.63
2023-03-29T09:58:18.867Z,100981.66
2023-03-29T10:00:50.214Z,100977.47
2023-03-29T10:03:19.766Z,100959.31
2023-03-29T10:05:54.445Z,100961.44
2023-03-29T10:08:28.701Z,100955.91
2023-03-29T10:10:59.015Z,100957.06
2023-03-29T10:13:31.603Z,100957.91
2023-03-29T10:16:17.161Z,100955.53
2023-03-29T10:18:44.149Z,100966.22
2023-03-29T10:21:17.041Z,100960.06
2023-03-29T10:23:44.312Z,100952.69
2023-03-29T10:26:21.370Z,100954.81
2023-03-29T10:28:48.003Z,100959.22
2023-03-29T10:31:22.437Z,100952.81
2023-03-29T10:33:57.704Z,100951.53
2023-03-29T10:36:27.106Z,100954.91
2023-03-29T10:38:58.552Z,100953.38
2023-03-29T10:41:27.271Z,100956.94
2023-03-29T10:43:54.584Z,100950.16
2023-03-29T10:46:28.576Z,100953.31
2023-03-29T10:49:06.063Z,100937.25
2023-03-29T10:51:34.494Z,100940.78
2023-03-29T10:54:02.971Z,100936.56
2023-03-29T10:56:41.342Z,100941.88
2023-03-29T10:59:21.607Z,100941.34
2023-03-29T11:02:13.205Z,100945.53
2023-03-29T11:04:58.395Z,100951.31
2023-03-29T11:07:27.866Z,100944.13
2023-03-29T11:09:54.615Z,100936.94
2023-03-29T11:12:46.455Z,100943.03
2023-03-29T11:15:30.439Z,100937.56
2023-03-29T11:18:09.070Z,100932.19
2023-03-29T11:20:45.797Z,100925.84
2023-03-29T11:23:21.443Z,100911.66
2023-03-29T11:26:23.327Z,100905.44
2023-03-29T11:29:01.547Z,100921.47
2023-03-29T11:31:30.850Z,100917.22
2023-03-29T11:34:20.151Z,100921.88
2023-03-29T11:36:50.423Z,100925.97
2023-03-29T11:39:42.303Z,100929.09
2023-03-29T11:42:19.024Z,100924.16
2023-03-29T11:44:48.355Z,100924.31
2023-03-29T11:47:24.579Z,100925.84
2023-03-29T11:49:57.681Z,100932.78
2023-03-29T11:52:30.097Z,100926.53
2023-03-29T11:55:13.360Z,100929.97
2023-03-29T11:57:48.103Z,100934.63
2023-03-29T12:00:35.025Z,100932.00
2023-03-29T12:03:23.303Z,100932.19
2023-03-29T12:06:02.583Z,100938.88
2023-03-29T12:08:33.712Z,100934.56
2023-03-29T12:11:24.086Z,100925.00
2023-03-29T12:13:57.339Z,100931.78
2023-03-29T12:16:48.941Z,100926.59
2023-03-29T12:19:45.360Z,100928.75
2023-03-29T12:22:12.297Z,100933.16
2023-03-29T12:24:45.837Z,100930.06
2023-03-29T12:27:47.866Z,100924.81
2023-03-29T12:30:46.420Z,100928.19
2023-03-29T12:33:32.387Z,100918.41
2023-03-29T12:36:42.223Z,100918.19
2023-03-29T12:39:33.379Z,100919.59
2023-03-29T12:42:22.459Z,100923.25
2023-03-29T12:45:32.073Z,100914.81
2023-03-29T12:48:01.364Z,100910.00
2023-03-29T12:50:34.767Z,100908.56
2023-03-29T12:53:22.108Z,100916.84
2023-03-29T12:56:08.890Z,100913.34
2023-03-29T12:58:53.979Z,100907.09
2023-03-29T13:01:41.505Z,100899.75
2023-03-29T13:04:16.962Z,100890.16
2023-03-29T13:06:46.709Z,100890.78
2023-03-29T13:09:56.156Z,100892.06
2023-03-29T13:12:24.658Z,100882.47
2023-03-29T13:14:55.288Z,100889.44
2023-03-29T13:17:35.089Z,100888.19
2023-03-29T13:20:16.748Z,100889.59
2023-03-29T13:22:49.356Z,100888.78
2023-03-29T13:25:43.677Z,100879.00
2023-03-29T13:28:32.775Z,100877.03
2023-03-29T13:31:39.330Z,100881.06
2023-03-29T13:34:07.015Z,100879.66
2023-03-29T13:36:57.149Z,100877.59
2023-03-29T13:39:29.269Z,100871.19
2023-03-29T13:42:20.141Z,100864.69
2023-03-29T13:44:49.207Z,100874.75
2023-03-29T13:47:18.846Z,100866.72
2023-03-29T13:49:56.311Z,100869.03
2023-03-29T13:52:28.470Z,100872.84
2023-03-29T13:55:01.693Z,100871.81
2023-03-29T13:57:38.500Z,100868.72
2023-03-29T14:00:18.202Z,100865.19
2023-03-29T14:02:56.680Z,100859.69
2023-03-29T14:05:32.451Z,100860.75
2023-03-29T14:08:24.508Z,100854.22
2023-03-29T14:10:52.823Z,100849.44
2023-03-29T14:13:23.162Z,100838.69
2023-03-29T14:15:54.749Z,100839.47
2023-03-29T14:18:23.856Z,100828.22
2023-03-29T14:20:55.415Z,100826.97
2023-03-29T14:23:27.331Z,100832.50
2023-03-29T14:25:53.993Z,100833.47
2023-03-29T14:28:28.852Z,100828.09
2023-03-29T14:30:56.640Z,100824.31
2023-03-29T14:33:29.831Z,100818.00
2023-03-29T14:35:59.152Z,100824.06
2023-03-29T14:38:27.045Z,100817.59
2023-03-29T14:40:58.742Z,100819.00
2023-03-29T14:43:29.830Z,100817.28
2023-03-29T14:46:02.794Z,100811.34
2023-03-29T14:48:33.067Z,100813.97
2023-03-29T14:51:01.085Z,100811.41
2023-03-29T14:53:30.603Z,100808.28
2023-03-29T14:55:58.307Z,100819.38
2023-03-29T14:58:32.332Z,100813.94
2023-03-29T15:01:05.274Z,100819.59
2023-03-29T15:03:42.690Z,100814.56
2023-03-29T15:06:10.367Z,100819.41
2023-03-29T15:08:40.527Z,100815.84
2023-03-29T15:11:21.884Z,100820.91
2023-03-29T15:13:50.842Z,100814.22
2023-03-29T15:16:21.440Z,100816.50
2023-03-29T15:18:51.830Z,100817.59
2023-03-29T15:21:22.181Z,100819.31
2023-03-29T15:23:56.043Z,100819.22
2023-03-29T15:26:34.814Z,100816.44
2023-03-29T15:29:12.578Z,100805.84
2023-03-29T15:31:41.852Z,100808.13
2023-03-29T15:34:14.133Z,100796.09
2023-03-29T15:36:43.168Z,100800.50
2023-03-29T15:39:17.327Z,100794.59
2023-03-29T15:41:46.354Z,100795.84
2023-03-29T15:44:17.301Z,100793.53
2023-03-29T15:46:44.265Z,100788.47
2023-03-29T15:49:12.461Z,100777.53
2023-03-29T15:51:40.072Z,100778.09
2023-03-29T15:54:07.907Z,100784.16
2023-03-29T15:56:39.920Z,100782.69
2023-03-29T15:59:09.891Z,100779.66
2023-03-29T16:01:37.786Z,100777.09
2023-03-29T16:04:18.597Z,100773.19
2023-03-29T16:06:48.636Z,100768.63
2023-03-29T16:09:17.008Z,100758.63
2023-03-29T16:11:44.851Z,100756.09
2023-03-29T16:14:17.859Z,100748.97
2023-03-29T16:16:44.762Z,100761.13
2023-03-29T16:19:11.960Z,100756.34
2023-03-29T16:21:38.674Z,100756.25
2023-03-29T16:24:07.233Z,100753.06
2023-03-29T16:26:33.895Z,100753.88
2023-03-29T16:29:00.610Z,100752.38
2023-03-29T16:31:27.327Z,100752.88
2023-03-29T16:33:54.098Z,100754.22
2023-03-29T16:36:20.828Z,100748.56
2023-03-29T16:38:47.613Z,100747.47
2023-03-29T16:41:15.771Z,100748.97
2023-03-29T16:43:42.691Z,100751.84
2023-03-29T16:46:11.266Z,100750.00
2023-03-29T16:48:38.408Z,100761.19
2023-03-29T16:51:05.772Z,100757.19
2023-03-29T16:53:34.379Z,100753.88
2023-03-29T16:56:01.683Z,100757.69
2023-03-29T16:58:28.626Z,100749.66
2023-03-29T17:00:57.001Z,100756.63
2023-03-29T17:03:24.380Z,100753.63
2023-03-29T17:05:52.993Z,100755.94
2023-03-29T17:08:21.177Z,100760.72
2023-03-29T17:10:55.638Z,100750.84
2023-03-29T17:13:23.933Z,100752.47
2023-03-29T17:15:52.363Z,100760.31
2023-03-29T17:18:24.534Z,100751.94
2023-03-29T17:20:52.761Z,100754.31
2023-03-29T17:23:19.446Z,100744.22
2023-03-29T17:25:46.091Z,100743.03
2023-03-29T17:28:12.785Z,100744.91
2023-03-29T17:30:40.097Z,100749.63
2023-03-29T17:33:08.174Z,100745.59
2023-03-29T17:35:35.081Z,100742.38
2023-03-29T17:38:02.934Z,100745.41
2023-03-29T17:40:29.637Z,100738.09
2023-03-29T17:42:56.270Z,100742.03
2023-03-29T17:45:22.907Z,100744.94
2023-03-29T17:47:49.800Z,100742.69
2023-03-29T17:50:16.715Z,100743.13
2023-03-29T17:52:43.392Z,100744.28
2023-03-29T17:55:13.567Z,100745.44
2023-03-29T17:57:41.352Z,100734.66
2023-03-29T18:00:13.750Z,100729.00
2023-03-29T18:02:41.469Z,100736.88
2023-03-29T18:05:09.451Z,100737.41
2023-03-29T18:07:36.510Z,100748.25
2023-03-29T18:10:04.348Z,100741.97
2023-03-29T18:12:31.109Z,100740.09
2023-03-29T18:14:57.903Z,100735.19
2023-03-29T18:17:25.539Z,100739.19
2023-03-29T18:19:52.204Z,100734.09
2023-03-29T18:22:19.731Z,100736.56
2023-03-29T18:24:49.343Z,100727.16
2023-03-29T18:27:16.125Z,100729.97
2023-03-29T18:29:44.012Z,100728.09
2023-03-29T18:32:11.087Z,100727.13
2023-03-29T18:34:39.501Z,100723.34
2023-03-29T18:37:06.413Z,100713.41
2023-03-29T18:39:34.778Z,100704.25
2023-03-29T18:42:01.789Z,100708.47
2023-03-29T18:44:29.261Z,100708.28
2023-03-29T18:46:56.331Z,100706.75
2023-03-29T18:49:24.988Z,100708.34
2023-03-29T18:51:51.921Z,100713.44
2023-03-29T18:54:18.701Z,100713.91
2023-03-29T18:56:45.477Z,100714.38
2023-03-29T18:59:12.494Z,100719.28
2023-03-29T19:01:39.531Z,100722.56
2023-03-29T19:04:06.327Z,100722.41
2023-03-29T19:06:33.114Z,100724.69
2023-03-29T19:09:01.984Z,100718.41
2023-03-29T19:11:31.831Z,100726.72
2023-03-29T19:13:58.582Z,100722.06
2023-03-29T19:16:25.825Z,100712.84
2023-03-29T19:18:52.522Z,100718.00
2023-03-29T19:21:19.319Z,100711.44
2023-03-29T19:23:46.201Z,100710.22
2023-03-29T19:26:14.914Z,100712.34
2023-03-29T19:28:41.550Z,100705.44
2023-03-29T19:31:08.271Z,100709.66
2023-03-29T19:33:34.998Z,100709.19
2023-03-29T19:36:02.090Z,100717.63
2023-03-29T19:38:29.031Z,100713.25
2023-03-29T19:40:55.864Z,100717.44
2023-03-29T19:43:22.553Z,100715.50
2023-03-29T19:45:50.735Z,100708.34
2023-03-29T19:48:23.584Z,100702.16
2023-03-29T19:50:51.401Z,100699.44
2023-03-29T19:53:18.430Z,100695.25
2023-03-29T19:55:45.410Z,100702.16
2023-03-29T19:58:13.556Z,100695.41
2023-03-29T20:00:41.695Z,100699.88
2023-03-29T20:03:09.872Z,100696.78
2023-03-29T20:05:38.476Z,100689.41
2023-03-29T20:08:05.398Z,100686.56
2023-03-29T20:10:32.906Z,100691.84
2023-03-29T20:12:59.612Z,100688.50
2023-03-29T20:15:26.230Z,100682.34
2023-03-29T20:17:56.944Z,100676.63
2023-03-29T20:20:25.508Z,100675.13
2023-03-29T20:22:58.044Z,100662.72
2023-03-29T20:25:25.003Z,100666.50
2023-03-29T20:27:53.136Z,100663.22
2023-03-29T20:30:20.211Z,100651.19
2023-03-29T20:32:47.064Z,100654.00
2023-03-29T20:35:14.102Z,100644.41
2023-03-29T20:37:41.135Z,100639.06
2023-03-29T20:40:08.882Z,100641.09
2023-03-29T20:42:36.775Z,100637.47
2023-03-29T20:45:04.110Z,100634.16
2023-03-29T20:47:30.831Z,100638.47
2023-03-29T20:49:57.790Z,100633.91
2023-03-29T20:52:24.804Z,100624.78
2023-03-29T20:54:51.575Z,100618.94
2023-03-29T20:57:20.967Z,100612.34
2023-03-29T20:59:49.189Z,100615.56
2023-03-29T21:02:20.747Z,100608.50
2023-03-29T21:04:52.157Z,100601.97
2023-03-29T21:07:20.173Z,100593.59
2023-03-29T21:09:50.434Z,100593.94
2023-03-29T21:12:17.516Z,100603.31
2023-03-29T21:14:44.712Z,100600.09
2023-03-29T21:17:11.533Z,100598.41
2023-03-29T21:19:39.538Z,100603.19
2023-03-29T21:22:06.745Z,100594.41
2023-03-29T21:24:36.361Z,100599.25
2023-03-29T21:27:03.152Z,100594.69
2023-03-29T21:29:29.964Z,100590.56
2023-03-29T21:31:56.825Z,100587.75
2023-03-29T21:34:23.463Z,100588.91
2023-03-29T21:36:50.578Z,100580.13
2023-03-29T21:39:17.275Z,100583.28
2023-03-29T21:41:43.951Z,100585.03
2023-03-29T21:44:10.861Z,100572.69
2023-03-29T21:46:37.512Z,100578.16
2023-03-29T21:49:04.437Z,100567.75
2023-03-29T21:51:31.135Z,100559.69
2023-03-29T21:53:57.790Z,100563.81
2023-03-29T21:56:24.425Z,100569.53
2023-03-29T21:58:51.112Z,100570.59
2023-03-29T22:01:17.825Z,100559.97
2023-03-29T22:03:44.664Z,100554.66
2023-03-29T22:06:13.446Z,100547.28
2023-03-29T22:08:40.153Z,100542.22
2023-03-29T22:11:10.981Z,100545.63
2023-03-29T22:13:38.041Z,100537.84
2023-03-29T22:16:05.809Z,100535.38
2023-03-29T22:18:44.416Z,100527.97
2023-03-29T22:21:14.398Z,100521.41
2023-03-29T22:23:42.824Z,100521.91
2023-03-29T22:26:11.690Z,100521.66
2023-03-29T22:28:39.141Z,100521.91
2023-03-29T22:31:11.551Z,100527.13
2023-03-29T22:33:38.838Z,100515.38
2023-03-29T22:36:19.281Z,100530.19
2023-03-29T22:38:46.267Z,100513.19
2023-03-29T22:41:13.830Z,100507.53
2023-03-29T22:43:41.253Z,100506.38
2023-03-29T22:46:10.639Z,100502.78
2023-03-29T22:48:37.592Z,100495.97
2023-03-29T22:51:05.837Z,100486.66
2023-03-29T22:53:33.448Z,100488.56
2023-03-29T22:56:00.224Z,100469.88
2023-03-29T22:58:29.295Z,100466.59
2023-03-29T23:00:57.105Z,100456.47
2023-03-29T23:03:23.996Z,100451.91
2023-03-29T23:05:55.284Z,100452.50
2023-03-29T23:08:22.971Z,100454.16
2023-03-29T23:10:49.716Z,100457.03
2023-03-29T23:13:20.615Z,100450.16
2023-03-29T23:15:48.570Z,100449.88
2023-03-29T23:18:18.214Z,100445.53
2023-03-29T23:20:47.082Z,100440.19
2023-03-29T23:23:15.366Z,100431.66
2023-03-29T23:25:47.530Z,100426.13
2023-03-29T23:28:16.888Z,100417.56
2023-03-29T23:30:43.702Z,100413.50
2023-03-29T23:33:10.578Z,100415.94
2023-03-29T23:35:37.722Z,100412.47
2023-03-29T23:38:05.776Z,100411.31
2023-03-29T23:40:33.284Z,100407.84
2023-03-29T23:43:04.177Z,100397.47
2023-03-29T23:45:31.759Z,100395.84
2023-03-29T23:47:58.513Z,100405.94
2023-03-29T23:50:28.451Z,100397.63
2023-03-29T23:52:55.440Z,100387.06
2023-03-29T23:55:22.106Z,100381.94
2023-03-29T23:57:48.748Z,100376.88
